Time;durP1;ratioP1;P1;durP2;ratioP2;P2;SDS_P1;SDS_P2;PMS_P1;PMS_P2;Temp;Humidity;BMP_temperature;BMP_pressure;BME280_temperature;BME280_humidity;BME280_pressure;Samples;Min_cycle;Max_cycle;Signal;HPM_P1;HPM_P2
2023/08/07 00:00:33;;;;;;;35.88;27.60;;;14.00;99.90;;;;;;4982992;28;20068;-77
2023/08/07 00:02:59;;;;;;;36.55;25.25;;;14.00;99.90;;;;;;4974223;28;20039;-77
2023/08/07 00:05:24;;;;;;;25.42;18.90;;;14.00;99.90;;;;;;4974212;28;20077;-77
2023/08/07 00:07:50;;;;;;;62.28;25.80;;;14.10;99.90;;;;;;4973902;28;20042;-77
2023/08/07 00:10:16;;;;;;;49.08;24.58;;;14.00;99.90;;;;;;4966797;28;20038;-77
2023/08/07 00:12:42;;;;;;;41.45;21.75;;;14.00;99.90;;;;;;4971793;28;20483;-77
2023/08/07 00:15:09;;;;;;;39.17;21.67;;;14.10;99.90;;;;;;4985533;28;20038;-77
2023/08/07 00:17:34;;;;;;;30.00;17.83;;;14.10;99.90;;;;;;4993507;28;20027;-76
2023/08/07 00:20:00;;;;;;;43.80;21.52;;;14.00;99.90;;;;;;4983104;28;20039;-76
2023/08/07 00:22:25;;;;;;;52.78;23.85;;;14.10;99.90;;;;;;4974050;28;20034;-76
2023/08/07 00:24:51;;;;;;;39.72;21.52;;;14.00;99.90;;;;;;4983824;28;20494;-76
2023/08/07 00:27:17;;;;;;;29.08;19.02;;;14.00;99.90;;;;;;4975968;28;20090;-76
2023/08/07 00:29:42;;;;;;;48.03;22.40;;;14.10;99.90;;;;;;4973240;28;20043;-76
2023/08/07 00:32:08;;;;;;;46.95;19.42;;;14.00;99.90;;;;;;4969703;28;20027;-76
2023/08/07 00:34:34;;;;;;;36.35;17.23;;;14.00;99.90;;;;;;4986681;28;20489;-76
2023/08/07 00:37:00;;;;;;;38.55;18.23;;;14.00;99.90;;;;;;4992505;28;20137;-76
2023/08/07 00:39:25;;;;;;;49.40;19.48;;;14.00;99.90;;;;;;4966688;28;20549;-76
2023/08/07 00:41:51;;;;;;;43.60;19.17;;;14.00;99.90;;;;;;4959428;28;20050;-76
2023/08/07 00:44:16;;;;;;;41.50;18.10;;;14.00;99.90;;;;;;4954814;28;20069;-76
2023/08/07 00:46:42;;;;;;;38.20;17.00;;;14.00;99.90;;;;;;4965469;28;20089;-76
2023/08/07 00:49:10;;;;;;;34.30;15.40;;;14.00;99.90;;;;;;4989953;28;20528;-76
2023/08/07 00:51:37;;;;;;;43.88;17.42;;;14.00;99.90;;;;;;4973130;28;20043;-76
2023/08/07 00:54:04;;;;;;;48.17;17.38;;;14.10;99.90;;;;;;4973334;28;20050;-76
2023/08/07 00:56:31;;;;;;;47.72;16.83;;;14.00;99.90;;;;;;4973140;28;20034;-76
2023/08/07 00:58:58;;;;;;;45.22;15.05;;;14.00;99.90;;;;;;4972800;28;20445;-76
2023/08/07 01:01:24;;;;;;;32.97;14.10;;;14.00;99.90;;;;;;4987378;28;20046;-76
2023/08/07 01:03:50;;;;;;;34.15;14.15;;;14.00;99.90;;;;;;4992349;28;20070;-76
2023/08/07 01:06:15;;;;;;;27.20;11.88;;;14.00;99.90;;;;;;4992320;28;20131;-76
2023/08/07 01:08:41;;;;;;;41.88;15.75;;;14.10;99.90;;;;;;4992513;28;20042;-76
2023/08/07 01:11:27;;;;;;;38.78;15.05;;;14.10;99.90;;;;;;4968614;28;20044;-76
2023/08/07 01:14:09;;;;;;;47.85;16.33;;;14.10;99.90;;;;;;4956709;28;20439;-76
2023/08/07 01:16:42;;;;;;;33.10;14.18;;;14.00;99.90;;;;;;4988581;28;20038;-76
2023/08/07 01:19:24;;;;;;;28.55;11.88;;;14.00;99.90;;;;;;4973993;28;20050;-76
2023/08/07 01:22:03;;;;;;;35.85;14.38;;;14.00;99.90;;;;;;4956021;28;20456;-76
2023/08/07 01:24:29;;;;;;;36.08;14.68;;;14.00;99.90;;;;;;4968188;28;20465;-76
2023/08/07 01:26:57;;;;;;;26.27;12.38;;;14.00;99.90;;;;;;4987113;28;20065;-76
2023/08/07 01:29:33;;;;;;;37.30;14.77;;;14.00;99.90;;;;;;4982159;28;20092;-76
2023/08/07 01:32:03;;;;;;;45.22;17.50;;;14.00;99.90;;;;;;4971124;28;20086;-76
2023/08/07 01:34:29;;;;;;;29.55;13.27;;;14.00;99.90;;;;;;4991928;28;20049;-76
2023/08/07 01:36:57;;;;;;;26.80;14.05;;;13.90;99.90;;;;;;4991750;28;20046;-76
2023/08/07 01:39:24;;;;;;;33.13;16.48;;;13.90;99.90;;;;;;4986515;28;20039;-76
2023/08/07 01:41:50;;;;;;;27.73;13.93;;;13.90;99.90;;;;;;4953464;28;20070;-76
2023/08/07 01:44:16;;;;;;;26.98;13.18;;;13.90;99.90;;;;;;4986121;28;20121;-76
2023/08/07 01:46:41;;;;;;;38.58;14.13;;;13.80;99.90;;;;;;4991477;28;20124;-76
2023/08/07 01:49:07;;;;;;;24.77;10.30;;;13.90;99.90;;;;;;4987980;28;20046;-76
2023/08/07 01:51:33;;;;;;;32.75;11.00;;;13.80;99.90;;;;;;4972342;28;20166;-76
2023/08/07 01:53:58;;;;;;;29.38;10.98;;;13.80;99.90;;;;;;4977493;28;20516;-76
2023/08/07 01:56:24;;;;;;;21.02;9.00;;;13.80;99.90;;;;;;5002901;28;20066;-76
2023/08/07 01:58:49;;;;;;;33.88;10.82;;;13.80;99.90;;;;;;5007761;28;20412;-76
2023/08/07 02:01:15;;;;;;;21.65;8.27;;;13.80;99.90;;;;;;4971657;28;20043;-76
2023/08/07 02:03:40;;;;;;;18.10;7.47;;;13.90;99.90;;;;;;4980189;28;20459;-76
2023/08/07 02:06:06;;;;;;;29.50;9.50;;;13.80;99.90;;;;;;4991298;28;20038;-76
2023/08/07 02:08:31;;;;;;;22.73;8.25;;;13.80;99.90;;;;;;4973000;28;20046;-76
2023/08/07 02:10:57;;;;;;;23.15;8.38;;;13.90;99.90;;;;;;4969980;28;20039;-76
2023/08/07 02:13:23;;;;;;;35.90;10.00;;;13.90;99.90;;;;;;4978584;28;20497;-76
2023/08/07 02:15:48;;;;;;;29.30;8.75;;;13.90;99.90;;;;;;4991448;28;20382;-76
2023/08/07 02:18:14;;;;;;;19.20;7.57;;;14.00;99.90;;;;;;4996904;28;20034;-76
2023/08/07 02:20:39;;;;;;;20.83;7.22;;;13.90;99.90;;;;;;4983196;28;20041;-76
2023/08/07 02:23:05;;;;;;;20.25;5.93;;;14.00;99.90;;;;;;4991329;28;20049;-76
2023/08/07 02:25:31;;;;;;;29.55;8.40;;;14.00;99.90;;;;;;4991167;28;20065;-76
2023/08/07 02:27:56;;;;;;;22.65;6.63;;;14.00;99.90;;;;;;4982561;28;20482;-76
2023/08/07 02:30:22;;;;;;;17.40;6.57;;;14.00;99.90;;;;;;4973334;28;20521;-76
2023/08/07 02:32:47;;;;;;;25.98;6.72;;;14.00;99.90;;;;;;4971738;28;20067;-76
2023/08/07 02:35:13;;;;;;;25.95;6.60;;;14.10;99.90;;;;;;4987854;28;20050;-76
2023/08/07 02:37:39;;;;;;;19.08;5.70;;;14.10;99.90;;;;;;4955637;28;20038;-76
2023/08/07 02:40:05;;;;;;;18.77;5.63;;;14.00;99.90;;;;;;4970294;28;20109;-76
2023/08/07 02:42:30;;;;;;;16.20;5.07;;;14.00;99.90;;;;;;4970550;28;20053;-76
2023/08/07 02:44:56;;;;;;;24.27;6.63;;;14.10;99.90;;;;;;4982747;28;20038;-76
2023/08/07 02:47:22;;;;;;;20.35;5.80;;;14.10;99.90;;;;;;4979949;28;20035;-76
2023/08/07 02:49:47;;;;;;;16.05;5.15;;;14.10;99.90;;;;;;4970804;28;20046;-76
2023/08/07 02:52:13;;;;;;;26.92;7.00;;;14.00;99.90;;;;;;4971530;28;20398;-76
2023/08/07 02:54:38;;;;;;;18.30;5.30;;;14.10;99.90;;;;;;4953763;28;20304;-76
2023/08/07 02:57:04;;;;;;;18.77;5.22;;;14.00;99.90;;;;;;4970803;28;20030;-76
2023/08/07 02:59:30;;;;;;;13.05;4.90;;;14.00;99.90;;;;;;4986343;28;20035;-76
2023/08/07 03:01:56;;;;;;;25.33;6.93;;;14.00;99.90;;;;;;4975488;28;20074;-76
2023/08/07 03:04:21;;;;;;;19.77;6.00;;;14.00;99.90;;;;;;4975255;28;20078;-76
2023/08/07 03:06:47;;;;;;;21.75;5.55;;;14.00;99.90;;;;;;4959313;28;20076;-76
2023/08/07 03:09:13;;;;;;;18.05;5.68;;;14.00;99.90;;;;;;4974230;28;20278;-76
2023/08/07 03:11:38;;;;;;;30.00;7.47;;;13.90;99.90;;;;;;4982280;28;20045;-77
2023/08/07 03:14:04;;;;;;;22.70;6.00;;;13.90;99.90;;;;;;4987264;28;20408;-77
2023/08/07 03:16:29;;;;;;;26.35;6.28;;;13.80;99.90;;;;;;4994335;28;20081;-77
2023/08/07 03:18:55;;;;;;;21.48;6.43;;;13.80;99.90;;;;;;4961131;28;20074;-77
2023/08/07 03:21:21;;;;;;;23.08;6.78;;;13.70;99.90;;;;;;4973918;28;20043;-77
2023/08/07 03:23:46;;;;;;;19.35;6.65;;;13.70;99.90;;;;;;4974951;28;20493;-77
2023/08/07 03:26:12;;;;;;;25.85;7.18;;;13.60;99.90;;;;;;4979096;28;20038;-77
2023/08/07 03:28:38;;;;;;;17.65;6.40;;;13.60;99.90;;;;;;4991521;28;20500;-77
2023/08/07 03:31:04;;;;;;;20.90;6.85;;;13.60;99.90;;;;;;4976037;28;20125;-77
2023/08/07 03:33:30;;;;;;;28.98;8.20;;;13.60;99.90;;;;;;4974723;28;20115;-77
2023/08/07 03:35:56;;;;;;;27.35;8.23;;;13.60;99.90;;;;;;4977054;28;20039;-76
2023/08/07 03:38:22;;;;;;;29.98;8.68;;;13.60;99.90;;;;;;4993987;28;20044;-76
2023/08/07 03:40:47;;;;;;;33.47;9.52;;;13.60;99.90;;;;;;4961452;28;20490;-76
2023/08/07 03:43:13;;;;;;;30.05;9.95;;;13.60;99.90;;;;;;4977212;28;20047;-76
2023/08/07 03:45:39;;;;;;;30.17;12.52;;;13.60;99.90;;;;;;4955201;29;20047;-76
2023/08/07 03:48:05;;;;;;;34.25;14.77;;;13.60;99.90;;;;;;4985144;28;20080;-76
2023/08/07 03:50:30;;;;;;;32.03;12.18;;;13.60;99.90;;;;;;4973207;28;20070;-76
2023/08/07 03:52:56;;;;;;;29.17;9.43;;;13.60;99.90;;;;;;4974109;28;20049;-76
2023/08/07 03:55:22;;;;;;;30.02;10.15;;;13.60;99.90;;;;;;4974663;28;20050;-76
2023/08/07 03:57:47;;;;;;;19.80;7.15;;;13.60;99.90;;;;;;4973353;28;20082;-77
2023/08/07 04:00:14;;;;;;;30.95;9.68;;;13.70;99.90;;;;;;4975289;28;20154;-76
2023/08/07 04:02:40;;;;;;;19.83;6.88;;;13.60;99.90;;;;;;4976648;28;20050;-77
2023/08/07 04:05:06;;;;;;;15.75;6.68;;;13.70;99.90;;;;;;4993509;28;20050;-76
2023/08/07 04:07:31;;;;;;;16.92;5.78;;;13.70;99.90;;;;;;4989396;28;20039;-77
2023/08/07 04:09:57;;;;;;;16.88;6.13;;;13.70;99.90;;;;;;4970011;28;20122;-77
2023/08/07 04:12:23;;;;;;;21.58;8.10;;;13.70;99.90;;;;;;4968350;28;20145;-77
2023/08/07 04:14:48;;;;;;;21.25;7.78;;;13.70;99.90;;;;;;4979253;28;20031;-77
2023/08/07 04:17:14;;;;;;;29.40;10.23;;;13.70;99.90;;;;;;4976836;28;20133;-77
2023/08/07 04:19:39;;;;;;;21.85;8.73;;;13.70;99.90;;;;;;4966537;28;20039;-77
2023/08/07 04:22:05;;;;;;;15.98;6.95;;;13.60;99.90;;;;;;4974151;28;20042;-77
2023/08/07 04:24:31;;;;;;;19.27;7.93;;;13.70;99.90;;;;;;4958227;28;20047;-77
2023/08/07 04:26:56;;;;;;;15.43;6.97;;;13.60;99.90;;;;;;4989964;28;20047;-77
2023/08/07 04:29:22;;;;;;;17.77;7.97;;;13.60;99.90;;;;;;4971204;28;20049;-78
2023/08/07 04:31:47;;;;;;;17.73;8.45;;;13.70;99.90;;;;;;4981290;28;20046;-78
2023/08/07 04:34:13;;;;;;;30.33;11.43;;;13.70;99.90;;;;;;4993040;28;20512;-77
2023/08/07 04:36:39;;;;;;;19.63;8.75;;;13.70;99.90;;;;;;4993193;28;20034;-78
2023/08/07 04:39:05;;;;;;;26.08;10.38;;;13.70;99.90;;;;;;4976796;28;20034;-77
2023/08/07 04:41:30;;;;;;;40.90;14.52;;;13.70;99.90;;;;;;4980467;28;20524;-77
2023/08/07 04:43:56;;;;;;;40.60;14.80;;;13.70;99.90;;;;;;4993191;28;20061;-77
2023/08/07 04:46:22;;;;;;;33.70;12.35;;;13.70;99.90;;;;;;4992850;28;20046;-77
2023/08/07 04:48:48;;;;;;;36.05;13.48;;;13.80;99.90;;;;;;4972824;28;20043;-77
2023/08/07 04:51:14;;;;;;;32.20;12.60;;;13.80;99.90;;;;;;4977618;28;20034;-77
2023/08/07 04:53:39;;;;;;;34.42;13.05;;;13.90;99.90;;;;;;4977245;28;20053;-77
2023/08/07 04:56:05;;;;;;;31.33;12.88;;;13.90;99.90;;;;;;4992553;28;20034;-77
2023/08/07 04:58:30;;;;;;;39.80;15.77;;;13.90;99.90;;;;;;4982581;28;20101;-77
2023/08/07 05:00:57;;;;;;;36.40;14.50;;;13.90;99.90;;;;;;4971473;28;20585;-77
2023/08/07 05:03:23;;;;;;;45.72;17.88;;;14.00;99.90;;;;;;4969887;28;20568;-77
2023/08/07 05:05:48;;;;;;;25.45;10.57;;;14.00;99.90;;;;;;4970762;28;20047;-77
2023/08/07 05:08:14;;;;;;;47.85;16.92;;;14.00;99.90;;;;;;4970499;28;20054;-77
2023/08/07 05:10:40;;;;;;;31.05;13.57;;;14.10;99.90;;;;;;4961574;28;20081;-76
2023/08/07 05:13:05;;;;;;;38.10;15.18;;;14.10;99.90;;;;;;4966559;28;20039;-76
2023/08/07 05:15:31;;;;;;;22.83;9.85;;;14.20;99.90;;;;;;4972223;28;20034;-78
2023/08/07 05:17:57;;;;;;;24.40;9.68;;;14.20;99.90;;;;;;4992032;28;20041;-77
2023/08/07 05:20:23;;;;;;;16.70;7.70;;;14.20;99.90;;;;;;4978436;28;20031;-77
2023/08/07 05:22:49;;;;;;;20.60;9.07;;;14.30;99.90;;;;;;4989766;28;20616;-77
2023/08/07 05:25:15;;;;;;;21.13;10.85;;;14.20;99.90;;;;;;4941211;28;20079;-77
2023/08/07 05:27:50;;;;;;;37.90;12.75;;;14.20;99.90;;;;;;4971639;28;20506;-75
2023/08/07 05:30:16;;;;;;;19.42;8.85;;;14.20;99.90;;;;;;4979336;28;20042;-76
2023/08/07 05:32:41;;;;;;;23.30;9.60;;;14.20;99.90;;;;;;4969130;28;20043;-76
2023/08/07 05:35:08;;;;;;;26.17;11.70;;;14.20;99.90;;;;;;4976942;28;20428;-76
2023/08/07 05:37:34;;;;;;;27.92;10.40;;;14.20;99.90;;;;;;4991773;28;20083;-76
2023/08/07 05:40:01;;;;;;;27.92;10.35;;;14.20;99.90;;;;;;4977228;28;20494;-75
2023/08/07 05:42:26;;;;;;;25.00;11.45;;;14.20;99.90;;;;;;4990766;28;20121;-77
2023/08/07 05:44:53;;;;;;;36.72;12.40;;;14.20;99.90;;;;;;4969071;28;20181;-75
2023/08/07 05:47:18;;;;;;;24.95;10.15;;;14.20;99.90;;;;;;4969612;28;20050;-75
2023/08/07 05:49:44;;;;;;;27.65;9.63;;;14.20;99.90;;;;;;4969356;28;20049;-75
2023/08/07 05:52:10;;;;;;;30.63;11.20;;;14.30;99.90;;;;;;4960301;28;20034;-75
2023/08/07 05:54:35;;;;;;;30.60;10.15;;;14.30;99.90;;;;;;4972146;28;20122;-75
2023/08/07 05:57:01;;;;;;;31.70;10.63;;;14.40;99.90;;;;;;4974943;28;20057;-75
2023/08/07 05:59:26;;;;;;;25.15;10.20;;;14.40;99.90;;;;;;4979149;28;20042;-75
2023/08/07 06:01:53;;;;;;;23.95;9.88;;;14.40;99.90;;;;;;4980198;28;20039;-77
2023/08/07 06:04:18;;;;;;;27.77;11.48;;;14.50;99.90;;;;;;4977347;28;20035;-77
2023/08/07 06:06:45;;;;;;;18.90;7.65;;;14.70;99.90;;;;;;4981793;28;20046;-76
2023/08/07 06:09:11;;;;;;;21.33;8.85;;;15.00;99.90;;;;;;4985117;28;20128;-76
2023/08/07 06:11:36;;;;;;;26.27;9.77;;;15.10;99.90;;;;;;4983914;28;20192;-76
2023/08/07 06:14:02;;;;;;;22.30;7.63;;;15.30;99.90;;;;;;4973901;28;20034;-76
2023/08/07 06:16:28;;;;;;;16.75;7.78;;;15.30;99.90;;;;;;4974987;28;20051;-76
2023/08/07 06:18:53;;;;;;;38.20;11.32;;;15.30;99.90;;;;;;4972838;28;20092;-76
2023/08/07 06:21:20;;;;;;;25.83;9.05;;;15.40;99.90;;;;;;4971997;28;20074;-76
2023/08/07 06:23:46;;;;;;;20.55;7.40;;;15.50;99.90;;;;;;4971970;28;20043;-75
2023/08/07 06:26:12;;;;;;;20.15;8.50;;;15.60;99.90;;;;;;4971513;28;20571;-75
2023/08/07 06:28:38;;;;;;;18.50;7.15;;;15.60;99.90;;;;;;4971694;28;20129;-75
2023/08/07 06:31:09;;;;;;;26.48;8.55;;;15.50;99.90;;;;;;4955620;28;20038;-75
2023/08/07 06:33:35;;;;;;;20.60;7.10;;;15.40;99.90;;;;;;4971629;28;20043;-76
2023/08/07 06:36:01;;;;;;;21.13;8.18;;;15.40;99.90;;;;;;4971047;28;20038;-76
2023/08/07 06:38:27;;;;;;;16.65;6.72;;;15.30;99.90;;;;;;4971558;28;20085;-76
2023/08/07 06:40:53;;;;;;;19.55;7.22;;;15.40;99.90;;;;;;4971666;28;20486;-75
2023/08/07 06:43:18;;;;;;;19.55;7.63;;;15.30;99.90;;;;;;4971648;28;20050;-75
2023/08/07 06:45:49;;;;;;;14.75;5.30;;;15.30;99.90;;;;;;4971253;28;20046;-76
2023/08/07 06:48:14;;;;;;;18.90;6.47;;;15.40;99.90;;;;;;4955628;28;20045;-76
2023/08/07 06:50:40;;;;;;;19.67;6.25;;;15.50;99.90;;;;;;4971457;28;20404;-76
2023/08/07 06:53:05;;;;;;;17.98;6.65;;;15.40;99.90;;;;;;4971539;28;20047;-76
2023/08/07 06:55:32;;;;;;;11.80;6.00;;;15.30;99.90;;;;;;4971458;28;20516;-76
2023/08/07 06:57:58;;;;;;;16.90;5.97;;;15.20;99.90;;;;;;4987383;28;20560;-76
2023/08/07 07:00:24;;;;;;;19.75;6.10;;;15.10;99.90;;;;;;4955312;28;20035;-76
2023/08/07 07:02:49;;;;;;;15.40;5.53;;;15.10;99.90;;;;;;4971735;28;20038;-76
2023/08/07 07:05:15;;;;;;;15.50;5.90;;;15.20;99.90;;;;;;4971678;28;20039;-76
2023/08/07 07:07:41;;;;;;;16.92;6.57;;;15.30;99.90;;;;;;4971163;28;20050;-76
2023/08/07 07:10:07;;;;;;;15.32;6.32;;;15.40;99.90;;;;;;4971302;28;20050;-76
2023/08/07 07:12:32;;;;;;;11.65;5.35;;;15.50;99.90;;;;;;4987314;28;20038;-76
2023/08/07 07:14:58;;;;;;;12.27;5.22;;;15.60;99.90;;;;;;4971308;28;20093;-76
2023/08/07 07:17:23;;;;;;;13.45;5.50;;;15.60;99.90;;;;;;4971030;28;20039;-75
2023/08/07 07:19:49;;;;;;;15.85;5.28;;;15.60;99.90;;;;;;4971143;28;20493;-75
2023/08/07 07:22:15;;;;;;;14.95;4.90;;;15.60;99.90;;;;;;4971304;28;20039;-75
2023/08/07 07:24:40;;;;;;;10.30;4.88;;;15.80;99.90;;;;;;4971215;28;20057;-75
2023/08/07 07:27:06;;;;;;;10.93;4.10;;;15.80;99.90;;;;;;4971036;28;20304;-76
2023/08/07 07:29:32;;;;;;;13.32;5.05;;;15.80;99.90;;;;;;4971190;28;20046;-75
2023/08/07 07:31:58;;;;;;;11.27;4.45;;;15.90;99.90;;;;;;4955094;28;20485;-77
2023/08/07 07:34:23;;;;;;;10.23;4.03;;;15.90;99.90;;;;;;4971196;28;20043;-76
2023/08/07 07:36:49;;;;;;;12.00;4.30;;;15.90;99.90;;;;;;4971231;28;20045;-76
2023/08/07 07:39:15;;;;;;;10.73;4.47;;;16.00;99.90;;;;;;4971126;28;20050;-76
2023/08/07 07:41:40;;;;;;;10.23;3.97;;;15.90;99.90;;;;;;4971094;28;20058;-76
2023/08/07 07:44:06;;;;;;;13.13;4.53;;;15.90;99.90;;;;;;4971427;28;20397;-76
2023/08/07 07:46:32;;;;;;;12.23;5.32;;;15.80;99.90;;;;;;4971453;28;20043;-76
2023/08/07 07:48:59;;;;;;;12.77;5.13;;;15.80;99.90;;;;;;4974559;28;20047;-75
2023/08/07 07:51:25;;;;;;;12.88;4.45;;;15.80;99.90;;;;;;4958278;28;20620;-76
2023/08/07 07:53:51;;;;;;;11.27;4.60;;;15.70;99.90;;;;;;4974467;28;20126;-76
2023/08/07 07:56:16;;;;;;;8.98;4.10;;;15.70;99.90;;;;;;4973986;28;20043;-76
2023/08/07 07:58:42;;;;;;;10.10;4.00;;;15.70;99.90;;;;;;4958406;28;20507;-76
2023/08/07 08:01:08;;;;;;;8.82;3.67;;;15.90;99.90;;;;;;4974367;28;20043;-76
2023/08/07 08:03:34;;;;;;;9.77;3.90;;;16.00;99.90;;;;;;4974528;28;20043;-76
2023/08/07 08:05:59;;;;;;;8.98;3.67;;;15.90;99.90;;;;;;4974043;28;20058;-76
2023/08/07 08:08:26;;;;;;;9.95;3.72;;;15.90;99.90;;;;;;4974321;28;20070;-76
2023/08/07 08:10:51;;;;;;;8.85;4.22;;;15.90;99.90;;;;;;4973976;28;20278;-76
2023/08/07 08:13:18;;;;;;;11.80;4.57;;;16.00;99.90;;;;;;4974271;28;20438;-75
2023/08/07 08:15:44;;;;;;;9.85;4.28;;;16.10;99.90;;;;;;4973904;28;20042;-75
2023/08/07 08:18:11;;;;;;;10.80;4.35;;;16.30;99.90;;;;;;4974186;28;20046;-76
2023/08/07 08:20:37;;;;;;;12.57;4.35;;;16.50;99.90;;;;;;4973928;28;20043;-76
2023/08/07 08:23:03;;;;;;;11.40;4.43;;;16.60;99.90;;;;;;4973928;28;20069;-76
2023/08/07 08:25:29;;;;;;;11.27;4.22;;;16.60;99.90;;;;;;4973962;28;20038;-76
2023/08/07 08:27:54;;;;;;;11.90;4.28;;;16.40;99.90;;;;;;4973613;28;20043;-76
2023/08/07 08:30:21;;;;;;;9.60;4.05;;;16.40;99.90;;;;;;4973712;28;20054;-76
2023/08/07 08:32:47;;;;;;;10.40;4.10;;;16.60;99.90;;;;;;4989848;28;20039;-75
2023/08/07 08:35:13;;;;;;;8.95;4.00;;;17.20;99.90;;;;;;4973718;28;20126;-75
2023/08/07 08:37:38;;;;;;;11.48;4.20;;;18.00;99.90;;;;;;4973412;28;20122;-75
2023/08/07 08:40:06;;;;;;;9.98;4.07;;;18.90;99.90;;;;;;4973431;28;20074;-75
2023/08/07 08:42:32;;;;;;;13.15;4.13;;;19.50;99.90;;;;;;4957769;28;20119;-76
2023/08/07 08:44:59;;;;;;;10.10;3.65;;;19.50;99.90;;;;;;4973551;28;20046;-76
2023/08/07 08:47:26;;;;;;;10.70;4.05;;;18.80;99.90;;;;;;4973364;28;20070;-76
2023/08/07 08:50:02;;;;;;;7.78;3.72;;;18.10;99.90;;;;;;4973390;28;20047;-76
2023/08/07 08:52:32;;;;;;;9.05;3.58;;;17.50;99.90;;;;;;4973448;28;20043;-76
2023/08/07 08:54:58;;;;;;;12.77;4.20;;;17.10;99.90;;;;;;4973325;28;20050;-75
2023/08/07 08:57:26;;;;;;;11.23;3.80;;;16.80;99.90;;;;;;4956650;28;20103;-76
2023/08/07 08:59:52;;;;;;;11.73;4.63;;;16.60;99.90;;;;;;4973169;28;20056;-76
2023/08/07 09:02:18;;;;;;;9.77;4.20;;;16.50;99.90;;;;;;4973390;28;20450;-75
2023/08/07 09:04:47;;;;;;;9.18;4.07;;;16.50;99.90;;;;;;4973340;28;20085;-76
2023/08/07 09:07:19;;;;;;;10.15;4.30;;;16.50;99.90;;;;;;4972799;28;20042;-76
2023/08/07 09:09:46;;;;;;;11.52;5.05;;;16.50;99.90;;;;;;4973198;28;20065;-76
2023/08/07 09:12:25;;;;;;;10.38;4.82;;;16.40;99.90;;;;;;4973062;28;20548;-75
2023/08/07 09:14:56;;;;;;;12.02;4.70;;;16.40;99.90;;;;;;4973051;28;20050;-75
2023/08/07 09:17:25;;;;;;;15.55;4.63;;;16.60;99.90;;;;;;4972999;28;20469;-76
2023/08/07 09:19:52;;;;;;;10.32;4.10;;;16.70;99.90;;;;;;4972775;28;20042;-76
2023/08/07 09:22:19;;;;;;;12.65;4.15;;;16.80;99.90;;;;;;4973082;28;20452;-76
2023/08/07 09:24:44;;;;;;;10.10;4.22;;;17.00;99.90;;;;;;4972958;28;20050;-76
2023/08/07 09:27:10;;;;;;;11.52;4.50;;;17.20;99.90;;;;;;4972772;28;20486;-76
2023/08/07 09:29:36;;;;;;;7.78;3.67;;;17.20;99.90;;;;;;4988769;28;20047;-76
2023/08/07 09:32:14;;;;;;;9.25;4.07;;;17.40;99.90;;;;;;4972455;28;20034;-76
2023/08/07 09:34:42;;;;;;;11.85;3.35;;;17.70;99.90;;;;;;4988719;28;20486;-76
2023/08/07 09:37:09;;;;;;;8.52;3.40;;;18.20;99.90;;;;;;4972625;28;20109;-76
2023/08/07 09:39:38;;;;;;;9.63;2.92;;;18.70;99.90;;;;;;4972603;28;20398;-76
2023/08/07 09:42:04;;;;;;;7.90;3.05;;;19.30;99.90;;;;;;4972468;28;20141;-76
2023/08/07 09:44:36;;;;;;;6.63;2.60;;;19.80;99.90;;;;;;4988543;28;20045;-76
2023/08/07 09:47:15;;;;;;;10.40;3.90;;;20.30;99.90;;;;;;4955959;28;20445;-76
2023/08/07 09:49:42;;;;;;;8.43;3.40;;;20.50;99.90;;;;;;4956429;28;20406;-76
2023/08/07 09:52:09;;;;;;;8.00;2.80;;;20.20;99.90;;;;;;4956184;28;20117;-76
2023/08/07 09:54:36;;;;;;;8.32;3.10;;;19.80;99.90;;;;;;4956213;28;20058;-76
2023/08/07 09:57:03;;;;;;;7.18;3.03;;;19.30;99.90;;;;;;4972241;28;20375;-76
2023/08/07 09:59:29;;;;;;;10.73;3.65;;;18.70;99.90;;;;;;4972126;28;20049;-76
2023/08/07 10:01:55;;;;;;;7.55;3.00;;;18.30;99.90;;;;;;4972127;28;20042;-76
2023/08/07 10:04:21;;;;;;;9.15;3.20;;;18.20;99.90;;;;;;4972124;28;20082;-76
2023/08/07 10:06:48;;;;;;;8.27;3.20;;;18.50;99.90;;;;;;4972121;28;20559;-76
2023/08/07 10:09:14;;;;;;;9.57;3.17;;;18.80;99.90;;;;;;4971196;28;20038;-76
2023/08/07 10:11:41;;;;;;;8.00;2.83;;;19.10;99.90;;;;;;4971844;28;20093;-76
2023/08/07 10:14:08;;;;;;;6.53;3.10;;;19.40;99.90;;;;;;4972007;28;20054;-76
2023/08/07 10:16:39;;;;;;;10.10;3.22;;;19.30;99.90;;;;;;4971758;28;20516;-75
2023/08/07 10:19:05;;;;;;;7.22;3.45;;;19.20;99.90;;;;;;4971863;28;20125;-76
2023/08/07 10:21:31;;;;;;;9.27;3.60;;;19.30;99.90;;;;;;4972126;28;20042;-75
2023/08/07 10:23:58;;;;;;;9.88;3.30;;;19.60;99.90;;;;;;4971831;28;20045;-76
2023/08/07 10:26:25;;;;;;;8.65;3.60;;;19.90;99.90;;;;;;4955508;28;20034;-76
2023/08/07 10:28:53;;;;;;;8.02;3.40;;;20.10;99.90;;;;;;4971771;28;20074;-76
2023/08/07 10:31:21;;;;;;;8.63;3.67;;;20.30;99.90;;;;;;4971734;28;20121;-75
2023/08/07 10:33:47;;;;;;;9.35;3.38;;;20.40;99.90;;;;;;4971814;28;20042;-75
2023/08/07 10:36:16;;;;;;;10.85;3.20;;;20.80;99.90;;;;;;4971829;28;20037;-76
2023/08/07 10:38:42;;;;;;;7.47;2.65;;;20.90;99.90;;;;;;4971456;28;20493;-75
2023/08/07 10:41:15;;;;;;;7.20;3.00;;;20.60;99.90;;;;;;4971631;28;20050;-76
2023/08/07 10:43:45;;;;;;;6.80;3.00;;;20.20;99.90;;;;;;4971648;28;20043;-75
2023/08/07 10:46:12;;;;;;;7.50;2.83;;;19.80;99.90;;;;;;4955252;28;20043;-76
2023/08/07 10:48:40;;;;;;;6.82;3.03;;;19.40;99.90;;;;;;4955700;28;20127;-76
2023/08/07 10:51:06;;;;;;;7.05;2.60;;;19.00;99.90;;;;;;4971776;28;20035;-76
2023/08/07 10:53:45;;;;;;;7.93;2.70;;;18.90;99.90;;;;;;4997579;23;20038;-76
2023/08/07 10:56:36;;;;;;;6.75;2.65;;;19.20;99.90;;;;;;4957877;28;20504;-76
2023/08/07 10:59:15;;;;;;;7.30;3.00;;;19.60;99.90;;;;;;4959581;28;20445;-77
2023/08/07 11:01:41;;;;;;;;;;;19.70;99.90;;;;;;4958956;28;20042;-77
2023/08/07 11:04:24;;;;;;;8.10;2.60;;;19.40;99.90;;;;;;4958495;28;19921;-76
2023/08/07 11:07:28;;;;;;;21.67;9.43;;;19.10;99.90;;;;;;4959533;28;20488;-78
2023/08/07 11:10:15;;;;;;;9.65;3.10;;;18.60;99.90;;;;;;4958763;28;20096;-77
2023/08/07 11:12:43;;;;;;;7.80;3.30;;;18.40;99.90;;;;;;4958070;28;20054;-77
2023/08/07 11:15:40;;;;;;;8.02;3.10;;;19.00;99.90;;;;;;4958553;28;20042;-77
2023/08/07 11:18:11;;;;;;;7.40;2.85;;;19.70;99.90;;;;;;4958161;28;20053;-76
2023/08/07 11:20:43;;;;;;;11.13;3.20;;;20.20;99.90;;;;;;4959124;28;20448;-77
2023/08/07 11:23:35;;;;;;;7.47;2.55;;;20.30;99.90;;;;;;4962347;28;20057;-77
2023/08/07 11:26:13;;;;;;;8.07;3.38;;;20.30;99.90;;;;;;4962392;28;20046;-76
2023/08/07 11:29:01;;;;;;;6.55;2.70;;;20.10;99.90;;;;;;4961032;28;20086;-76
2023/08/07 11:31:37;;;;;;;5.68;2.60;;;20.20;99.90;;;;;;4961301;28;20090;-76
2023/08/07 11:34:42;;;;;;;4.30;2.03;;;20.10;99.90;;;;;;4966711;28;20050;-77
2023/08/07 11:37:34;;;;;;;5.65;2.50;;;19.70;99.90;;;;;;4962411;28;20046;-76
2023/08/07 11:40:07;;;;;;;9.10;2.90;;;19.10;99.90;;;;;;4961763;28;20046;-76
2023/08/07 11:43:02;;;;;;;7.03;2.60;;;18.90;99.90;;;;;;4983703;28;20129;-76
2023/08/07 11:46:19;;;;;;;7.88;2.83;;;18.80;99.90;;;;;;4961975;28;20078;-77
2023/08/07 11:48:54;;;;;;;7.75;2.85;;;19.30;99.90;;;;;;4960438;28;20045;-77
2023/08/07 11:51:38;;;;;;;8.10;2.45;;;20.00;99.90;;;;;;4962060;28;20046;-76
2023/08/07 11:54:48;;;;;;;6.70;2.70;;;20.50;99.90;;;;;;4959172;28;20137;-77
2023/08/07 11:57:32;;;;;;;7.53;2.70;;;20.60;99.90;;;;;;4948535;28;20042;-76
2023/08/07 12:00:29;;;;;;;4.97;2.50;;;21.00;99.90;;;;;;4961804;28;20048;-77
2023/08/07 12:03:10;;;;;;;7.47;2.38;;;21.40;99.90;;;;;;4961587;28;20069;-78
2023/08/07 12:05:53;;;;;;;7.43;2.63;;;21.30;99.90;;;;;;4961410;28;20061;-76
2023/08/07 12:08:31;;;;;;;7.10;2.10;;;21.40;99.90;;;;;;4960590;28;20046;-77
2023/08/07 12:11:19;;;;;;;7.45;2.67;;;21.70;99.90;;;;;;4993669;28;20044;-76
2023/08/07 12:13:49;;;;;;;6.32;2.20;;;22.00;99.90;;;;;;4958799;28;20046;-78
2023/08/07 12:16:22;;;;;;;7.15;2.65;;;22.10;99.90;;;;;;4960505;28;20042;-77
2023/08/07 12:19:04;;;;;;;7.17;2.70;;;21.90;99.90;;;;;;4960545;28;20051;-76
2023/08/07 12:21:34;;;;;;;8.93;3.13;;;21.40;99.90;;;;;;4961462;28;20042;-76
2023/08/07 12:24:20;;;;;;;8.05;2.85;;;21.20;99.90;;;;;;4954890;28;20150;-77
2023/08/07 12:26:54;;;;;;;5.70;2.40;;;21.30;99.90;;;;;;4961661;28;20042;-77
2023/08/07 12:29:35;;;;;;;6.28;2.38;;;21.30;99.90;;;;;;4960800;28;20563;-76
2023/08/07 12:32:09;;;;;;;6.78;2.97;;;21.20;99.90;;;;;;4960841;28;20054;-76
2023/08/07 12:34:36;;;;;;;7.07;2.55;;;20.90;99.90;;;;;;4961047;28;20437;-76
2023/08/07 12:37:10;;;;;;;7.00;2.60;;;20.50;99.90;;;;;;4976822;28;20057;-77
2023/08/07 12:39:39;;;;;;;8.30;2.47;;;20.20;99.90;;;;;;4960879;28;20125;-76
2023/08/07 12:45:22;;;;;;;8.60;3.03;;;20.70;99.90;;;;;;4994140;28;20046;-75
2023/08/07 12:48:26;;;;;;;7.22;2.78;;;20.60;99.90;;;;;;4960174;28;20563;-77